Time;durP1;ratioP1;P1;durP2;ratioP2;P2;SDS_P1;SDS_P2;PMS_P1;PMS_P2;Temp;Humidity;BMP_temperature;BMP_pressure;BME280_temperature;BME280_humidity;BME280_pressure;Samples;Min_cycle;Max_cycle;Signal;HPM_P1;HPM_P2
2024/03/05 00:00:55;;;;;;;39.27;21.73;;;8.70;99.90;;;;;;5051102;28;20451;-84
2024/03/05 00:03:22;;;;;;;39.20;21.77;;;8.70;99.90;;;;;;5053791;28;20448;-84
2024/03/05 00:05:52;;;;;;;41.57;22.63;;;8.70;99.90;;;;;;5053456;28;20549;-85
2024/03/05 00:08:18;;;;;;;38.17;21.60;;;8.70;99.90;;;;;;5050070;28;21031;-84
2024/03/05 00:10:46;;;;;;;36.60;20.60;;;8.70;99.90;;;;;;5053974;28;20486;-83
2024/03/05 00:13:18;;;;;;;39.90;22.20;;;8.70;99.90;;;;;;5053539;28;21002;-84
2024/03/05 00:15:45;;;;;;;40.37;24.60;;;8.70;99.90;;;;;;5053547;28;20459;-85
2024/03/05 00:18:12;;;;;;;45.27;24.10;;;8.70;99.90;;;;;;5055601;28;20526;-87
2024/03/05 00:20:38;;;;;;;45.00;23.60;;;8.70;99.90;;;;;;5054996;28;20451;-84
2024/03/05 00:23:08;;;;;;;38.87;24.07;;;8.70;99.90;;;;;;5054740;28;20459;-84
2024/03/05 00:25:35;;;;;;;49.77;26.43;;;8.70;99.90;;;;;;5052239;28;20478;-83
2024/03/05 00:28:02;;;;;;;53.60;25.53;;;8.80;99.90;;;;;;5052260;28;20981;-83
2024/03/05 00:30:30;;;;;;;43.00;23.80;;;8.60;99.90;;;;;;5053455;28;20495;-84
2024/03/05 00:32:57;;;;;;;50.23;24.80;;;8.60;99.90;;;;;;5056526;28;20452;-85
2024/03/05 00:35:24;;;;;;;45.97;23.07;;;8.60;99.90;;;;;;5060956;28;20528;-85
2024/03/05 00:37:51;;;;;;;47.47;23.90;;;8.50;99.90;;;;;;5060348;28;20454;-85
2024/03/05 00:40:18;;;;;;;47.23;22.90;;;8.40;99.90;;;;;;5055520;28;20505;-83
2024/03/05 00:42:45;;;;;;;44.47;21.47;;;8.20;99.90;;;;;;5052989;28;20447;-84
2024/03/05 00:45:12;;;;;;;39.20;22.13;;;8.10;99.90;;;;;;5052793;28;20463;-85
2024/03/05 00:47:40;;;;;;;43.30;23.57;;;8.10;99.90;;;;;;5052425;28;20444;-84
2024/03/05 00:50:08;;;;;;;39.27;20.90;;;7.90;99.90;;;;;;5053331;28;20576;-84
2024/03/05 00:52:35;;;;;;;39.57;21.20;;;7.80;99.90;;;;;;5052889;28;20459;-84
2024/03/05 00:55:02;;;;;;;40.73;23.13;;;7.80;99.90;;;;;;5051634;28;20995;-84
2024/03/05 00:57:29;;;;;;;44.90;23.83;;;7.80;99.90;;;;;;5050342;28;20449;-85
2024/03/05 00:59:55;;;;;;;45.23;23.13;;;7.80;99.90;;;;;;5055325;28;20456;-83
2024/03/05 01:02:22;;;;;;;42.10;22.83;;;7.80;99.90;;;;;;5053614;28;20482;-84
2024/03/05 01:04:52;;;;;;;54.43;24.97;;;7.80;99.90;;;;;;5053165;28;20541;-84
2024/03/05 01:07:19;;;;;;;49.07;24.40;;;7.80;99.90;;;;;;5047992;28;20482;-84
2024/03/05 01:09:48;;;;;;;43.40;25.40;;;7.90;99.90;;;;;;5050288;28;20495;-84
2024/03/05 01:12:15;;;;;;;47.70;23.40;;;8.00;99.90;;;;;;5052391;28;20935;-85
2024/03/05 01:14:41;;;;;;;45.40;24.17;;;8.10;99.90;;;;;;5052849;28;20477;-83
2024/03/05 01:17:11;;;;;;;40.20;22.23;;;8.10;99.90;;;;;;5052237;28;20465;-84
2024/03/05 01:19:39;;;;;;;47.30;26.47;;;8.10;99.90;;;;;;5050685;28;20509;-84
2024/03/05 01:22:07;;;;;;;48.40;23.77;;;8.20;99.90;;;;;;5049744;28;21030;-83
2024/03/05 01:24:34;;;;;;;46.70;24.50;;;8.20;99.90;;;;;;5053068;28;20471;-83
2024/03/05 01:27:00;;;;;;;45.87;24.50;;;8.30;99.90;;;;;;5052092;28;20465;-83
2024/03/05 01:29:27;;;;;;;50.23;25.90;;;8.30;99.90;;;;;;5052871;28;20452;-86
2024/03/05 01:31:56;;;;;;;44.80;25.17;;;8.40;99.90;;;;;;5047009;28;20463;-83
2024/03/05 01:34:23;;;;;;;45.80;23.40;;;8.40;99.90;;;;;;5053574;28;21092;-83
2024/03/05 01:36:56;;;;;;;50.77;27.03;;;8.40;99.90;;;;;;5055728;28;20448;-84
2024/03/05 01:39:25;;;;;;;56.50;25.53;;;8.40;99.90;;;;;;5056570;28;20888;-83
2024/03/05 01:41:53;;;;;;;42.00;24.27;;;8.40;99.90;;;;;;5056239;28;20520;-84
2024/03/05 01:44:20;;;;;;;47.53;23.40;;;8.40;99.90;;;;;;5053916;28;20481;-84
2024/03/05 01:46:47;;;;;;;45.87;25.63;;;8.40;99.90;;;;;;5056185;28;20451;-84
2024/03/05 01:49:14;;;;;;;53.43;27.37;;;8.40;99.90;;;;;;5055883;28;20546;-83
2024/03/05 01:51:41;;;;;;;46.50;24.00;;;8.50;99.90;;;;;;5052371;28;20490;-81
2024/03/05 01:54:08;;;;;;;44.00;23.07;;;8.50;99.90;;;;;;5051791;28;20899;-84
2024/03/05 01:56:54;;;;;;;41.90;22.30;;;8.50;99.90;;;;;;5056187;28;20458;-84
2024/03/05 01:59:22;;;;;;;48.80;23.60;;;8.50;99.90;;;;;;5056613;28;20485;-83
2024/03/05 02:01:52;;;;;;;55.83;25.17;;;8.60;99.90;;;;;;5056273;28;20523;-84
2024/03/05 02:04:19;;;;;;;44.50;25.00;;;8.60;99.90;;;;;;5056742;28;20482;-83
2024/03/05 02:06:47;;;;;;;46.43;23.93;;;8.70;99.90;;;;;;5053570;28;20558;-83
2024/03/05 02:09:15;;;;;;;41.43;23.37;;;8.70;99.90;;;;;;5050996;28;20838;-84
2024/03/05 02:11:42;;;;;;;41.60;22.63;;;8.80;99.90;;;;;;5057177;28;20564;-83
2024/03/05 02:14:13;;;;;;;45.43;25.40;;;8.80;99.90;;;;;;5057265;28;20510;-84
2024/03/05 02:16:45;;;;;;;42.07;23.97;;;8.80;99.90;;;;;;5057140;28;20456;-84
2024/03/05 02:19:12;;;;;;;41.83;22.73;;;8.80;99.90;;;;;;5057569;28;20514;-84
2024/03/05 02:21:40;;;;;;;42.40;22.90;;;8.80;99.90;;;;;;5057973;28;20584;-85
2024/03/05 02:24:07;;;;;;;48.77;25.00;;;8.80;99.90;;;;;;5057730;28;20525;-84
2024/03/05 02:26:35;;;;;;;43.40;23.93;;;8.80;99.90;;;;;;5057969;28;20522;-85
2024/03/05 02:29:03;;;;;;;47.13;24.90;;;8.80;99.90;;;;;;5058022;28;20467;-84
2024/03/05 02:31:30;;;;;;;45.83;25.30;;;8.90;99.90;;;;;;5057508;28;20552;-84
2024/03/05 02:33:57;;;;;;;48.67;25.87;;;8.90;99.90;;;;;;5057433;28;20551;-85
2024/03/05 02:36:24;;;;;;;50.20;26.07;;;8.90;99.90;;;;;;5056905;28;20459;-84
2024/03/05 02:38:52;;;;;;;53.00;25.47;;;9.00;99.90;;;;;;5057861;28;20451;-84
2024/03/05 02:41:20;;;;;;;53.77;27.40;;;9.00;99.90;;;;;;5058225;28;20458;-84
2024/03/05 02:43:47;;;;;;;46.10;23.97;;;9.00;99.90;;;;;;5057212;28;20571;-84
2024/03/05 02:46:15;;;;;;;50.27;25.53;;;9.10;99.90;;;;;;5056757;28;20530;-84
2024/03/05 02:48:42;;;;;;;49.13;25.33;;;9.10;99.90;;;;;;5057862;28;20471;-84
2024/03/05 02:51:09;;;;;;;46.67;23.70;;;9.10;99.90;;;;;;5058007;28;20534;-84
2024/03/05 02:53:36;;;;;;;50.47;25.03;;;9.10;99.90;;;;;;5050081;28;20486;-86
2024/03/05 02:56:05;;;;;;;50.57;23.20;;;9.10;99.90;;;;;;5057699;28;20552;-85
2024/03/05 02:58:32;;;;;;;46.30;24.20;;;9.20;99.90;;;;;;5057912;28;20501;-84
2024/03/05 03:00:59;;;;;;;45.60;24.27;;;9.20;99.90;;;;;;5058787;28;20457;-83
2024/03/05 03:03:26;;;;;;;53.27;25.50;;;9.20;99.90;;;;;;5057928;28;20838;-85
2024/03/05 03:05:53;;;;;;;51.60;24.50;;;9.10;99.90;;;;;;5057500;28;20471;-84
2024/03/05 03:08:20;;;;;;;47.77;25.03;;;9.10;99.90;;;;;;5058541;28;20458;-84
2024/03/05 03:10:47;;;;;;;45.83;23.40;;;9.10;99.90;;;;;;5059512;28;20526;-86
2024/03/05 03:13:15;;;;;;;44.93;24.73;;;9.10;99.90;;;;;;5059874;28;20459;-85
2024/03/05 03:15:43;;;;;;;48.23;24.80;;;9.10;99.90;;;;;;5060090;28;20919;-85
2024/03/05 03:18:10;;;;;;;48.80;24.37;;;9.10;99.90;;;;;;5063960;28;20510;-83
2024/03/05 03:20:37;;;;;;;51.17;24.20;;;9.10;99.90;;;;;;5054659;28;20449;-84
2024/03/05 03:23:04;;;;;;;41.30;24.50;;;9.10;99.90;;;;;;5054700;28;20457;-84
2024/03/05 03:25:31;;;;;;;38.30;22.10;;;9.10;99.90;;;;;;5054849;28;20480;-84
2024/03/05 03:27:59;;;;;;;47.07;24.27;;;9.10;99.90;;;;;;5052953;28;20455;-84
2024/03/05 03:30:30;;;;;;;46.83;23.87;;;9.10;99.90;;;;;;5054485;28;20506;-84
2024/03/05 03:32:57;;;;;;;46.67;23.60;;;9.00;99.90;;;;;;5046655;28;21186;-84
2024/03/05 03:35:24;;;;;;;47.20;24.00;;;8.90;99.90;;;;;;5046322;28;20567;-83
2024/03/05 03:37:53;;;;;;;43.50;24.07;;;8.90;99.90;;;;;;5053595;28;20480;-84
2024/03/05 03:40:21;;;;;;;43.13;22.50;;;8.90;99.90;;;;;;5046574;28;20511;-84
2024/03/05 03:42:50;;;;;;;51.33;25.90;;;8.90;99.90;;;;;;5054042;28;20444;-84
2024/03/05 03:45:18;;;;;;;42.27;22.50;;;8.80;99.90;;;;;;5054073;28;20476;-84
2024/03/05 03:47:47;;;;;;;44.10;23.00;;;8.80;99.90;;;;;;5053523;28;20947;-83
2024/03/05 03:50:17;;;;;;;47.80;24.60;;;8.70;99.90;;;;;;5053791;28;20466;-84
2024/03/05 03:52:44;;;;;;;53.17;24.57;;;8.80;99.90;;;;;;5053250;28;20517;-84
2024/03/05 03:55:11;;;;;;;47.07;23.30;;;8.80;99.90;;;;;;5053353;28;20537;-83
2024/03/05 03:57:38;;;;;;;52.73;25.30;;;8.80;99.90;;;;;;5052610;28;21019;-85
2024/03/05 04:00:09;;;;;;;43.20;25.00;;;8.70;99.90;;;;;;5053969;28;20535;-84
2024/03/05 04:02:36;;;;;;;51.97;25.40;;;8.70;99.90;;;;;;5053404;28;20451;-84
2024/03/05 04:05:09;;;;;;;43.97;23.07;;;8.70;99.90;;;;;;5053915;28;20484;-84
2024/03/05 04:07:36;;;;;;;53.00;24.47;;;8.70;99.90;;;;;;5053865;28;20475;-84
2024/03/05 04:10:06;;;;;;;50.40;25.70;;;8.70;99.90;;;;;;5057935;28;20541;-86
2024/03/05 04:12:32;;;;;;;45.87;24.10;;;8.60;99.90;;;;;;5060156;28;20492;-84
2024/03/05 04:14:59;;;;;;;45.30;23.40;;;8.60;99.90;;;;;;5059879;28;20517;-86
2024/03/05 04:17:26;;;;;;;53.10;26.00;;;8.60;99.90;;;;;;5058308;28;20450;-84
2024/03/05 04:19:56;;;;;;;51.87;25.43;;;8.60;99.90;;;;;;5056902;28;20558;-85
2024/03/05 04:22:24;;;;;;;60.97;26.90;;;8.60;99.90;;;;;;5056653;28;20866;-85
2024/03/05 04:24:55;;;;;;;51.97;25.67;;;8.50;99.90;;;;;;5055758;28;20496;-86
2024/03/05 04:27:23;;;;;;;43.90;22.60;;;8.50;99.90;;;;;;5054464;28;20508;-84
2024/03/05 04:29:53;;;;;;;44.40;22.37;;;8.50;99.90;;;;;;5044878;28;20510;-84
2024/03/05 04:32:22;;;;;;;47.50;24.73;;;8.50;99.90;;;;;;5046438;28;20483;-85
2024/03/05 04:35:00;;;;;;;48.57;24.10;;;8.50;99.90;;;;;;5055889;28;20483;-84
2024/03/05 04:37:28;;;;;;;48.87;25.57;;;8.50;99.90;;;;;;5055570;28;20455;-84
2024/03/05 04:39:55;;;;;;;52.77;25.90;;;8.40;99.90;;;;;;5056272;28;20455;-84
2024/03/05 04:42:22;;;;;;;54.43;25.97;;;8.40;99.90;;;;;;5056444;28;20953;-85
2024/03/05 04:44:49;;;;;;;50.00;26.20;;;8.40;99.90;;;;;;5055988;28;21001;-84
2024/03/05 04:47:16;;;;;;;48.00;25.30;;;8.30;99.90;;;;;;5055402;28;20454;-85
2024/03/05 04:49:43;;;;;;;49.03;23.70;;;8.20;99.90;;;;;;5055807;28;20454;-84
2024/03/05 04:52:11;;;;;;;51.60;24.30;;;8.20;99.90;;;;;;5055872;28;20872;-85
2024/03/05 04:54:39;;;;;;;58.30;26.47;;;8.30;99.90;;;;;;5056065;28;20480;-83
2024/03/05 04:57:06;;;;;;;54.20;27.33;;;8.20;99.90;;;;;;5047405;28;20458;-84
2024/03/05 04:59:33;;;;;;;58.10;27.23;;;8.20;99.90;;;;;;5055609;28;20460;-84
2024/03/05 05:02:00;;;;;;;48.67;25.07;;;8.20;99.90;;;;;;5056160;28;20960;-86
2024/03/05 05:04:27;;;;;;;50.97;23.33;;;8.30;99.90;;;;;;5056387;28;20490;-85
2024/03/05 05:06:54;;;;;;;53.67;27.40;;;8.30;99.90;;;;;;5047521;28;20963;-84
2024/03/05 05:09:22;;;;;;;51.90;25.10;;;8.30;99.90;;;;;;5059719;28;20524;-84
2024/03/05 05:11:51;;;;;;;49.40;24.33;;;8.30;99.90;;;;;;5060855;28;20953;-83
2024/03/05 05:14:18;;;;;;;44.10;23.13;;;8.30;99.90;;;;;;5062427;28;20546;-85
2024/03/05 05:16:46;;;;;;;49.90;25.23;;;8.30;99.90;;;;;;5059660;28;20554;-85
2024/03/05 05:19:15;;;;;;;54.97;27.10;;;8.30;99.90;;;;;;5060968;28;20448;-86
2024/03/05 05:21:44;;;;;;;53.83;27.67;;;8.30;99.90;;;;;;5061760;28;20452;-84
2024/03/05 05:24:11;;;;;;;60.60;25.37;;;8.30;99.90;;;;;;5061030;28;20504;-84
2024/03/05 05:26:39;;;;;;;63.67;29.27;;;8.40;99.90;;;;;;5060376;28;20459;-85
2024/03/05 05:29:07;;;;;;;50.13;24.83;;;8.40;99.90;;;;;;5061546;28;20465;-83
2024/03/05 05:31:36;;;;;;;53.77;25.47;;;8.40;99.90;;;;;;5051770;28;20488;-85
2024/03/05 05:34:03;;;;;;;54.53;26.20;;;8.40;99.90;;;;;;5055287;28;20483;-84
2024/03/05 05:36:30;;;;;;;53.33;27.37;;;8.50;99.90;;;;;;5053412;28;20539;-81
2024/03/05 05:38:58;;;;;;;61.30;31.10;;;8.40;99.90;;;;;;5050373;28;20525;-82
2024/03/05 05:41:25;;;;;;;71.90;34.20;;;8.50;99.90;;;;;;5051332;28;20491;-83
2024/03/05 05:43:52;;;;;;;68.17;32.00;;;8.50;99.90;;;;;;5053717;28;21024;-82
2024/03/05 05:46:23;;;;;;;61.30;30.23;;;8.50;99.90;;;;;;5050784;28;20967;-83
2024/03/05 05:48:51;;;;;;;58.87;29.20;;;8.60;99.90;;;;;;5053160;28;20444;-84
2024/03/05 05:51:21;;;;;;;57.63;28.40;;;8.60;99.90;;;;;;5053654;28;20492;-82
2024/03/05 05:53:49;;;;;;;71.83;30.57;;;8.60;99.90;;;;;;5056122;28;20478;-83
2024/03/05 05:56:17;;;;;;;63.13;32.13;;;8.60;99.90;;;;;;5056177;28;20462;-85
2024/03/05 05:58:44;;;;;;;66.37;30.97;;;8.70;99.90;;;;;;5055653;28;20505;-84
2024/03/05 06:01:13;;;;;;;68.53;33.03;;;8.70;99.90;;;;;;5056373;28;20454;-84
2024/03/05 06:03:42;;;;;;;74.33;33.67;;;8.70;99.90;;;;;;5051579;28;20470;-84
2024/03/05 06:06:09;;;;;;;75.20;34.37;;;8.70;99.90;;;;;;5052772;28;20443;-83
2024/03/05 06:08:36;;;;;;;64.90;32.50;;;8.70;99.90;;;;;;5048016;28;20973;-84
2024/03/05 06:11:03;;;;;;;69.43;32.93;;;8.80;99.90;;;;;;5055065;28;20541;-85
2024/03/05 06:13:30;;;;;;;68.03;32.93;;;8.70;99.90;;;;;;5054404;28;20542;-83
2024/03/05 06:15:58;;;;;;;72.23;33.70;;;8.70;99.90;;;;;;5056759;28;20455;-86
2024/03/05 06:18:25;;;;;;;73.20;33.60;;;8.70;99.90;;;;;;5057409;28;20560;-83
2024/03/05 06:20:53;;;;;;;72.47;32.97;;;8.70;99.90;;;;;;5056664;28;20440;-82
2024/03/05 06:23:20;;;;;;;62.10;30.37;;;8.70;99.90;;;;;;5051472;28;20457;-82
2024/03/05 06:25:47;;;;;;;63.63;31.37;;;8.70;99.90;;;;;;5057003;28;20453;-83
2024/03/05 06:28:14;;;;;;;61.43;31.97;;;8.80;99.90;;;;;;5057359;28;20447;-82
2024/03/05 06:30:46;;;;;;;63.23;28.37;;;8.80;99.90;;;;;;5050013;28;20456;-82
2024/03/05 06:33:13;;;;;;;59.87;30.13;;;8.80;99.90;;;;;;5058268;28;20545;-82
2024/03/05 06:35:40;;;;;;;58.67;28.83;;;8.80;99.90;;;;;;5058095;28;20498;-84
2024/03/05 06:38:08;;;;;;;65.97;31.40;;;8.90;99.90;;;;;;5048746;28;20458;-82
2024/03/05 06:40:36;;;;;;;64.57;29.57;;;8.90;99.90;;;;;;5050388;28;20443;-82
2024/03/05 06:43:12;;;;;;;72.23;30.47;;;9.00;99.90;;;;;;5058565;28;20569;-83
2024/03/05 06:45:42;;;;;;;61.07;29.40;;;9.00;99.90;;;;;;5057897;28;20479;-82
2024/03/05 06:48:12;;;;;;;53.67;25.77;;;9.00;99.90;;;;;;5057983;28;20473;-82
2024/03/05 06:50:41;;;;;;;53.50;26.67;;;9.00;99.90;;;;;;5058188;28;20971;-83
2024/03/05 06:58:41;;;;;;;54.03;27.17;;;9.10;99.90;;;;;;5058055;28;20435;-83
2024/03/05 07:01:08;;;;;;;64.63;29.80;;;9.20;99.90;;;;;;5057735;28;20478;-83
2024/03/05 07:03:35;;;;;;;53.60;27.13;;;9.20;99.90;;;;;;5057347;28;20555;-83
2024/03/05 07:06:07;;;;;;;49.73;26.27;;;9.20;99.90;;;;;;5058066;28;20471;-83
2024/03/05 07:08:35;;;;;;;54.10;25.30;;;9.30;99.90;;;;;;5049875;28;20461;-83
2024/03/05 07:11:03;;;;;;;53.90;27.07;;;9.40;99.90;;;;;;5058972;28;20542;-83
2024/03/05 07:13:30;;;;;;;51.03;25.30;;;9.50;99.90;;;;;;5057468;28;20499;-83
2024/03/05 07:15:57;;;;;;;59.70;29.03;;;9.50;99.90;;;;;;5057902;28;20461;-82
2024/03/05 07:18:25;;;;;;;50.17;27.40;;;9.50;99.90;;;;;;5057135;28;20452;-83
2024/03/05 07:20:52;;;;;;;50.53;25.57;;;9.50;99.90;;;;;;5058595;28;20456;-84
2024/03/05 07:23:20;;;;;;;54.50;25.30;;;9.60;99.90;;;;;;5058054;28;20465;-82
2024/03/05 07:25:48;;;;;;;51.67;24.93;;;9.70;99.90;;;;;;5060360;28;20460;-83
2024/03/05 07:28:16;;;;;;;46.90;25.43;;;9.80;99.90;;;;;;5060630;28;20453;-82
2024/03/05 07:30:44;;;;;;;55.43;26.57;;;9.90;99.90;;;;;;5063938;28;20529;-82
2024/03/05 07:33:12;;;;;;;48.60;25.70;;;9.90;99.90;;;;;;5055998;28;20489;-83
2024/03/05 07:35:40;;;;;;;54.37;25.80;;;10.00;99.90;;;;;;5056973;28;20474;-82
2024/03/05 07:38:07;;;;;;;48.87;25.97;;;10.00;99.90;;;;;;5057052;28;20462;-82
2024/03/05 07:40:34;;;;;;;54.83;27.77;;;9.80;99.90;;;;;;5056948;28;20457;-83
2024/03/05 07:43:04;;;;;;;53.43;26.27;;;9.60;99.90;;;;;;5057296;28;20544;-82
2024/03/05 07:45:31;;;;;;;49.30;24.47;;;9.70;99.90;;;;;;5057136;28;20479;-82
2024/03/05 07:47:58;;;;;;;46.10;25.07;;;9.80;99.90;;;;;;5056141;28;20470;-83
2024/03/05 07:50:25;;;;;;;48.70;25.90;;;9.80;99.90;;;;;;5056927;28;20525;-82
2024/03/05 07:52:53;;;;;;;46.60;23.63;;;9.90;99.90;;;;;;5056940;28;20578;-83
2024/03/05 07:55:21;;;;;;;45.50;25.40;;;9.80;99.90;;;;;;5058148;28;20477;-84
2024/03/05 07:57:49;;;;;;;47.83;25.93;;;9.90;99.90;;;;;;5053945;28;20461;-84
2024/03/05 08:00:19;;;;;;;48.07;25.10;;;9.80;99.90;;;;;;5051991;28;20964;-84
2024/03/05 08:02:47;;;;;;;50.20;25.77;;;9.90;99.90;;;;;;5058614;28;20452;-83
2024/03/05 08:05:17;;;;;;;49.70;25.03;;;9.80;99.90;;;;;;5057380;28;20543;-82
2024/03/05 08:07:45;;;;;;;43.70;22.40;;;9.90;99.90;;;;;;5054822;28;20489;-80
2024/03/05 08:10:13;;;;;;;51.53;25.70;;;9.90;99.90;;;;;;5056177;28;20452;-81
2024/03/05 08:12:43;;;;;;;54.60;26.23;;;10.00;99.90;;;;;;5055414;28;20553;-82
2024/03/05 08:15:12;;;;;;;48.60;26.07;;;10.00;99.90;;;;;;5056607;28;20497;-81
2024/03/05 08:17:41;;;;;;;57.57;26.90;;;10.00;99.90;;;;;;5055573;28;20463;-82
2024/03/05 08:20:12;;;;;;;55.37;26.50;;;10.20;99.90;;;;;;5048035;28;20452;-81
2024/03/05 08:22:39;;;;;;;51.23;26.47;;;10.30;99.90;;;;;;5056869;28;20459;-82
2024/03/05 08:25:09;;;;;;;54.00;27.27;;;10.50;99.90;;;;;;5056744;28;20498;-81
2024/03/05 08:27:38;;;;;;;47.33;23.53;;;10.70;99.90;;;;;;5054444;28;20450;-81
2024/03/05 08:30:07;;;;;;;41.37;22.67;;;10.80;99.90;;;;;;5055057;28;20460;-81
2024/03/05 08:32:35;;;;;;;45.20;24.07;;;10.90;99.90;;;;;;5056124;28;20554;-81
2024/03/05 08:35:03;;;;;;;48.53;25.50;;;11.10;99.90;;;;;;5055728;28;20478;-83
2024/03/05 08:37:30;;;;;;;53.83;27.13;;;11.20;99.90;;;;;;5054568;28;20545;-80
2024/03/05 08:39:56;;;;;;;42.23;25.17;;;11.30;99.90;;;;;;5055114;28;20454;-81
2024/03/05 08:42:23;;;;;;;46.83;24.73;;;11.50;99.90;;;;;;5056978;28;20454;-81
2024/03/05 08:44:51;;;;;;;47.30;24.97;;;11.60;99.90;;;;;;5056798;28;20477;-82
2024/03/05 08:47:18;;;;;;;47.07;26.07;;;11.70;99.90;;;;;;5056344;28;20527;-82
2024/03/05 08:49:46;;;;;;;42.40;24.60;;;11.80;99.90;;;;;;5054899;28;20472;-82
2024/03/05 08:52:15;;;;;;;44.57;25.47;;;11.90;99.90;;;;;;5050120;28;20517;-83
2024/03/05 08:54:42;;;;;;;49.20;25.20;;;12.10;99.90;;;;;;5048408;28;20510;-81
2024/03/05 08:57:09;;;;;;;40.60;24.30;;;12.00;99.90;;;;;;5055506;28;20448;-83
2024/03/05 08:59:36;;;;;;;42.87;27.43;;;12.20;99.90;;;;;;5056550;28;20465;-82
2024/03/05 09:02:04;;;;;;;41.13;22.50;;;12.30;99.90;;;;;;5055416;28;20523;-81
2024/03/05 09:04:31;;;;;;;38.67;23.53;;;12.50;99.90;;;;;;5056471;28;20487;-81
2024/03/05 09:07:01;;;;;;;37.57;24.70;;;12.60;99.90;;;;;;5056531;28;20459;-81
2024/03/05 09:09:30;;;;;;;47.27;25.03;;;12.80;99.90;;;;;;5057251;28;20542;-81
2024/03/05 09:11:57;;;;;;;36.73;22.00;;;12.70;99.90;;;;;;5052165;28;20467;-81
2024/03/05 09:14:24;;;;;;;38.60;23.50;;;12.80;99.90;;;;;;5050609;28;20468;-81
2024/03/05 09:16:52;;;;;;;39.97;23.50;;;12.90;99.90;;;;;;5055242;28;20523;-81
2024/03/05 09:19:20;;;;;;;39.70;25.07;;;13.10;99.90;;;;;;5057570;28;20536;-81
2024/03/05 09:21:47;;;;;;;39.63;22.40;;;13.20;99.90;;;;;;5058710;28;20455;-82
2024/03/05 09:24:14;;;;;;;38.00;21.20;;;13.20;99.90;;;;;;5056532;28;20566;-82
2024/03/05 09:26:42;;;;;;;36.23;22.57;;;13.20;99.90;;;;;;5047483;28;20456;-83
2024/03/05 09:29:09;;;;;;;36.20;21.47;;;13.30;99.90;;;;;;5055351;28;20837;-82
2024/03/05 09:31:36;;;;;;;44.07;23.40;;;13.50;99.90;;;;;;5057004;28;20537;-81
2024/03/05 09:34:03;;;;;;;38.10;22.20;;;13.60;99.90;;;;;;5056345;28;20492;-81
2024/03/05 09:36:30;;;;;;;37.80;22.07;;;13.80;99.90;;;;;;5055392;28;20551;-81
2024/03/05 09:38:57;;;;;;;37.03;22.97;;;13.90;99.90;;;;;;5055160;28;20472;-82
2024/03/05 09:41:25;;;;;;;35.80;23.10;;;13.70;99.90;;;;;;5054949;28;20452;-82
2024/03/05 09:43:53;;;;;;;38.30;23.47;;;13.60;99.90;;;;;;5055016;28;20583;-81
2024/03/05 09:46:21;;;;;;;38.33;22.47;;;13.90;99.90;;;;;;5054714;28;20548;-82
2024/03/05 09:48:48;;;;;;;41.80;24.27;;;13.70;99.90;;;;;;5054956;28;20577;-81
2024/03/05 09:51:16;;;;;;;36.63;23.57;;;13.70;99.90;;;;;;5054540;28;20538;-81
2024/03/05 09:53:43;;;;;;;38.77;23.47;;;13.90;99.90;;;;;;5054771;28;20538;-80
2024/03/05 09:56:10;;;;;;;41.43;22.93;;;14.00;99.90;;;;;;5055552;28;20453;-81
2024/03/05 09:58:38;;;;;;;45.30;28.00;;;13.90;99.90;;;;;;5059009;28;20460;-81
2024/03/05 10:01:09;;;;;;;37.57;25.03;;;13.40;99.90;;;;;;5059374;28;20463;-81
2024/03/05 10:03:38;;;;;;;43.97;24.63;;;13.50;99.90;;;;;;5058672;28;20452;-81
2024/03/05 10:06:07;;;;;;;39.47;25.50;;;13.50;99.90;;;;;;5057402;28;20839;-80
2024/03/05 10:08:34;;;;;;;39.70;24.50;;;13.40;99.90;;;;;;5056573;28;20960;-81
2024/03/05 10:11:02;;;;;;;38.73;24.00;;;13.20;99.90;;;;;;5050915;28;20466;-83
2024/03/05 10:13:32;;;;;;;36.83;23.27;;;13.10;99.90;;;;;;5058354;28;20952;-83
2024/03/05 10:16:17;;;;;;;38.87;24.00;;;13.30;99.90;;;;;;5057306;28;20452;-81
2024/03/05 10:18:46;;;;;;;37.37;23.53;;;13.20;99.90;;;;;;5058712;28;20458;-83
2024/03/05 10:21:18;;;;;;;38.90;24.27;;;13.20;99.90;;;;;;5060210;28;20464;-82
2024/03/05 10:23:55;;;;;;;35.70;24.10;;;12.70;99.90;;;;;;5060335;28;20469;-81
2024/03/05 10:26:24;;;;;;;40.07;22.30;;;12.70;99.90;;;;;;5059374;28;20507;-81
2024/03/05 10:28:52;;;;;;;42.97;24.33;;;12.70;99.90;;;;;;5059454;28;20512;-82
2024/03/05 10:31:24;;;;;;;37.70;22.57;;;12.50;99.90;;;;;;5058981;28;20463;-81
2024/03/05 10:33:54;;;;;;;40.40;23.50;;;12.00;99.90;;;;;;5060390;28;20502;-83
2024/03/05 10:36:25;;;;;;;36.30;22.40;;;12.10;99.90;;;;;;5060468;28;20462;-83
2024/03/05 10:38:53;;;;;;;43.07;23.23;;;12.10;99.90;;;;;;5060814;28;20542;-83
2024/03/05 10:41:22;;;;;;;35.53;22.03;;;12.00;99.90;;;;;;5059525;28;20454;-82
2024/03/05 10:43:51;;;;;;;36.30;23.17;;;11.90;99.90;;;;;;5059833;28;20566;-83
2024/03/05 10:46:20;;;;;;;42.20;24.43;;;11.70;99.90;;;;;;5059257;28;20454;-81
2024/03/05 10:48:50;;;;;;;37.23;23.73;;;11.60;99.90;;;;;;5060385;28;20521;-83
2024/03/05 10:51:20;;;;;;;40.40;24.27;;;11.60;99.90;;;;;;5059580;28;20486;-82
2024/03/05 10:53:49;;;;;;;38.90;22.10;;;11.60;99.90;;;;;;5059435;28;20501;-82
2024/03/05 10:56:16;;;;;;;37.87;23.90;;;11.50;99.90;;;;;;5059187;28;20454;-82
2024/03/05 11:01:30;;;;;;;39.90;21.30;;;11.60;99.90;;;;;;5057920;28;20448;-81
2024/03/05 11:04:01;;;;;;;37.80;21.07;;;11.60;99.90;;;;;;5050286;28;20534;-83
2024/03/05 11:06:28;;;;;;;33.23;19.93;;;11.70;99.90;;;;;;5058026;28;20447;-82
2024/03/05 11:08:56;;;;;;;31.00;20.47;;;11.70;99.90;;;;;;5059340;28;20486;-81
2024/03/05 11:11:26;;;;;;;41.73;24.43;;;11.70;99.90;;;;;;5059199;28;20566;-82
2024/03/05 11:13:57;;;;;;;33.33;21.33;;;11.40;99.90;;;;;;5058404;28;20573;-81
2024/03/05 11:16:26;;;;;;;33.73;25.90;;;11.50;99.90;;;;;;5059061;28;20473;-83
2024/03/05 11:18:53;;;;;;;32.93;19.77;;;11.40;99.90;;;;;;5060157;28;20472;-83
2024/03/05 11:21:23;;;;;;;24.63;16.07;;;11.40;99.90;;;;;;5058521;28;20458;-81
2024/03/05 11:23:57;;;;;;;31.43;19.13;;;11.40;99.90;;;;;;5058729;28;20662;-82
2024/03/05 11:26:25;;;;;;;31.27;18.37;;;11.40;99.90;;;;;;5049849;28;20459;-82
2024/03/05 11:29:06;;;;;;;33.30;19.87;;;11.30;99.90;;;;;;5058264;28;20546;-81
2024/03/05 11:31:34;;;;;;;37.27;22.00;;;11.30;99.90;;;;;;5059192;28;20442;-83
2024/03/05 11:34:12;;;;;;;34.50;20.97;;;11.20;99.90;;;;;;5050169;28;20505;-82
2024/03/05 11:36:41;;;;;;;38.03;23.30;;;11.10;99.90;;;;;;5056745;28;20454;-82
2024/03/05 11:39:09;;;;;;;42.13;25.70;;;11.00;99.90;;;;;;5053170;28;20889;-82
2024/03/05 11:41:37;;;;;;;38.17;25.53;;;10.90;99.90;;;;;;5057003;28;20485;-82
2024/03/05 11:44:04;;;;;;;38.13;24.33;;;10.90;99.90;;;;;;5051582;28;20516;-81
2024/03/05 11:46:42;;;;;;;41.17;24.13;;;10.90;99.90;;;;;;5055237;28;20462;-80
2024/03/05 11:49:10;;;;;;;46.33;24.30;;;10.70;99.90;;;;;;5055975;28;20552;-81
2024/03/05 11:51:40;;;;;;;43.80;24.13;;;10.80;99.90;;;;;;5055584;28;20458;-81
2024/03/05 11:54:08;;;;;;;39.77;23.93;;;10.80;99.90;;;;;;5057638;28;21039;-81
2024/03/05 11:56:35;;;;;;;42.10;25.20;;;10.70;99.90;;;;;;5056375;28;20462;-81
2024/03/05 11:59:02;;;;;;;36.20;22.20;;;10.80;99.90;;;;;;5054022;28;20517;-81
2024/03/05 12:01:30;;;;;;;40.10;23.53;;;10.70;99.90;;;;;;5053231;28;20455;-82
2024/03/05 12:04:03;;;;;;;40.37;22.63;;;10.60;99.90;;;;;;5048941;28;20542;-82
2024/03/05 12:06:30;;;;;;;41.00;23.07;;;10.70;99.90;;;;;;5058407;28;20464;-82
2024/03/05 12:09:10;;;;;;;43.27;25.30;;;10.70;99.90;;;;;;5057587;28;20549;-82
2024/03/05 12:11:37;;;;;;;41.10;24.10;;;10.60;99.90;;;;;;5061854;28;20448;-81
2024/03/05 12:14:08;;;;;;;36.50;22.50;;;10.60;99.90;;;;;;5065328;28;20560;-82
2024/03/05 12:16:35;;;;;;;42.80;24.93;;;10.50;99.90;;;;;;5062182;28;20537;-82
2024/03/05 12:19:02;;;;;;;35.27;21.80;;;10.40;99.90;;;;;;5060842;28;20908;-83
2024/03/05 12:21:29;;;;;;;40.37;23.33;;;10.40;99.90;;;;;;5059072;28;20467;-82
2024/03/05 12:23:57;;;;;;;34.10;21.17;;;10.40;99.90;;;;;;5058717;28;20547;-83
2024/03/05 12:26:25;;;;;;;40.97;24.00;;;10.40;99.90;;;;;;5058072;28;20898;-83
2024/03/05 12:28:52;;;;;;;40.83;26.03;;;10.30;99.90;;;;;;5059516;28;20458;-83
2024/03/05 12:31:19;;;;;;;43.23;24.07;;;10.30;99.90;;;;;;5058154;28;20457;-81
2024/03/05 12:33:46;;;;;;;39.77;23.53;;;10.30;99.90;;;;;;5057480;28;20502;-81
2024/03/05 12:36:15;;;;;;;44.40;25.57;;;10.40;99.90;;;;;;5057236;28;20890;-82
2024/03/05 12:38:42;;;;;;;42.23;25.20;;;10.40;99.90;;;;;;5056592;28;20454;-79
2024/03/05 12:41:11;;;;;;;43.13;26.43;;;10.20;99.90;;;;;;5056959;28;20958;-82
2024/03/05 12:43:39;;;;;;;42.17;25.80;;;10.10;99.90;;;;;;5056339;28;20485;-82
2024/03/05 12:46:13;;;;;;;41.87;23.70;;;10.10;99.90;;;;;;5055526;28;20461;-82